• Join FlightAware (Why Join?)
  • Login
  • US Flag 
11:10PM EDT


 

Airport Tracker/Info


-or-


 

Live Flight TrackerFlight Track Log ✈ UAL139 ✈ 18-Oct-2013 ✈ KDEN - RJAA / NRT

Flight Track Log - Related Links

Times and Time Zones

All times are in EDT time to prevent confusion due to time zone crossing. See the UAL139 flight status page for this flight to view local times or setup timezone preferences in your user account.

Time Position Orientation Groundspeed Altitude Reporting Facility
EDT Latitude Longitude Course Direction KTS MPH feet Rate Location/Type
02:29PM 39.8650 -104.6960 333° Northwest 140 161 5,100  Level FlightAware
02:29PM 39.8830 -104.6960 360° North 178 205 5,500 1,800 Climbing FlightAware
02:30PM 39.8970 -104.6970 357° North 179 206 6,300 3,000 Climbing FlightAware
02:30PM 39.9010 -104.6980 349° North 181 208 6,500 1,500 Climbing FlightAware
02:30PM 39.9070 -104.7020 333° Northwest 189 217 6,600 1,080 Climbing FlightAware
02:30PM 39.9130 -104.7080 323° Northwest 199 229 6,800 1,080 Climbing FlightAware
02:30PM 39.9170 -104.7160 303° West 214 246 6,900 480 Climbing FlightAware
02:30PM 39.9190 -104.7210 298° West 223 257 6,900 480 Level FlightAware
02:30PM 39.9200 -104.7320 277° West 239 275 7,000 1,740 Climbing FlightAware
02:31PM 39.9220 -104.7560 276° West 247 284 7,600 2,280 Climbing FlightAware
02:31PM 39.9240 -104.7870 275° West 260 299 8,400 1,860 Climbing FlightAware
02:31PM 39.9270 -104.8060 282° West 274 315 8,600 2,400 Climbing FlightAware
02:31PM 39.9320 -104.8380 282° West 272 313 9,700 2,520 Climbing FlightAware
02:32PM 39.9397 -104.8841 282° West 295 339 10,700 1,860 Climbing FlightAware ADS-B (KEIK)
02:32PM 39.9444 -104.9436 276° West 319 367 11,600 2,100 Climbing FlightAware ADS-B (KEIK)
02:33PM 39.9446 -104.9990 270° West 329 379 12,900 2,580 Climbing FlightAware ADS-B (KEIK)
02:33PM 39.9378 -105.0606 262° West 338 389 14,200 2,340 Climbing FlightAware ADS-B (KEIK)
02:34PM 39.9303 -105.1258 261° West 350 403 15,300 2,040 Climbing FlightAware ADS-B (KEIK)
02:34PM 39.9230 -105.1897 262° West 362 417 16,300 2,040 Climbing FlightAware ADS-B (KEIK)
02:35PM 39.9135 -105.2696 261° West 371 427 17,600 2,100 Climbing FlightAware ADS-B (KEIK)
02:36PM 39.9061 -105.3336 261° West 379 436 18,700 2,100 Climbing FlightAware ADS-B (KEIK)
02:36PM 39.8981 -105.4041 262° West 382 440 19,700 2,100 Climbing FlightAware ADS-B (KEIK)
02:37PM 39.8908 -105.4668 261° West 386 444 20,800 1,800 Climbing FlightAware ADS-B (KEIK)
02:37PM 39.8793 -105.5673 262° West 402 463 22,100 1,680 Climbing FlightAware ADS-B (KEIK)
02:38PM 39.8670 -105.6660 261° West 408 470 23,100 1,800 Climbing FlightAware
02:38PM 39.8642 -105.6912 262° West 413 475 23,400 1,620 Climbing FlightAware ADS-B (KEIK)
02:39PM 39.8535 -105.7905 262° West 415 478 24,500 1,620 Climbing FlightAware ADS-B (KEIK)
02:40PM 39.8442 -105.9118 264° West 422 486 25,800 1,500 Climbing FlightAware ADS-B (KEIK)
02:40PM 39.8376 -105.9899 264° West 432 497 26,500 1,320 Climbing FlightAware ADS-B (KEIK)
02:41PM 39.8293 -106.0842 263° West 436 502 27,300 1,260 Climbing FlightAware ADS-B (KEIK)
02:41PM 39.8229 -106.1543 263° West 442 509 28,000 1,140 Climbing FlightAware ADS-B (KEIK)
02:42PM 39.8110 -106.2860 263° West 452 520 28,800 1,200 Climbing FlightAware
02:42PM 39.8097 -106.3009 263° West 453 521 29,000 1,020 Climbing FlightAware ADS-B (KEIK)
02:43PM 39.8016 -106.3893 263° West 458 527 29,500 780 Climbing FlightAware ADS-B (KEIK)
02:43PM 39.7930 -106.4830 263° West 468 539 29,900 780 Climbing FlightAware
02:43PM 39.7909 -106.5101 264° West 468 539 30,100 960 Climbing FlightAware ADS-B (KEIK)
02:44PM 39.7830 -106.6680 266° West 476 548 31,000 960 Climbing FlightAware
02:44PM 39.7811 -106.6999 266° West 478 550 31,200 1,080 Climbing FlightAware ADS-B (KEIK)
02:45PM 39.7747 -106.8409 267° West 481 554 32,100 1,140 Climbing FlightAware ADS-B (KEIK)
02:46PM 39.7698 -106.9470 267° West 478 550 32,900 1,320 Climbing FlightAware ADS-B (KMTJ)
02:46PM 39.7656 -107.0309 266° West 477 549 33,600 1,320 Climbing FlightAware ADS-B (KMTJ)
02:47PM 39.7614 -107.1210 267° West 474 545 34,300 1,320 Climbing FlightAware ADS-B (KMTJ)
02:47PM 39.7572 -107.2056 266° West 469 540 35,000 1,200 Climbing FlightAware ADS-B (KMTJ)
02:48PM 39.7532 -107.2861 266° West 468 539 35,500 660 Climbing FlightAware ADS-B (KMTJ)
02:48PM 39.7484 -107.3837 266° West 474 545 35,700 420 Climbing FlightAware ADS-B (KMTJ)
02:49PM 39.7440 -107.4699 266° West 476 548 36,000 240 Climbing FlightAware ADS-B (KMTJ)
02:49PM 39.7394 -107.5584 266° West 477 549 36,000  Level FlightAware ADS-B (KMTJ)
02:50PM 39.7347 -107.6468 266° West 476 548 36,000  Level FlightAware ADS-B (KMTJ)
02:51PM 39.7298 -107.7395 266° West 475 547 36,000  Level FlightAware ADS-B (KMTJ)
02:51PM 39.7247 -107.8317 266° West 472 543 36,000  Level FlightAware ADS-B (KMTJ)
02:52PM 39.7206 -107.9075 266° West 474 545 36,000  Level FlightAware ADS-B (KMTJ)
02:52PM 39.7149 -108.0091 266° West 475 547 36,000  Level FlightAware ADS-B (KMTJ)
02:53PM 39.7107 -108.0850 266° West 472 543 36,000  Level FlightAware ADS-B (KMTJ)
02:53PM 39.7061 -108.1644 266° West 472 543 36,000  Level FlightAware ADS-B (KMTJ)
02:54PM 39.6996 -108.2778 266° West 474 545 36,000  Level FlightAware ADS-B (KMTJ)
02:54PM 39.6939 -108.3740 266° West 478 550 36,000  Level FlightAware ADS-B (KMTJ)
02:55PM 39.6882 -108.4690 266° West 480 552 36,000  Level FlightAware ADS-B (KMTJ)
02:55PM 39.6822 -108.5661 265° West 478 550 36,000  Level FlightAware ADS-B (KMTJ)
02:56PM 39.6765 -108.6597 265° West 479 551 36,000  Level FlightAware ADS-B (KMTJ)
02:56PM 39.6708 -108.7518 265° West 481 554 36,000  Level FlightAware ADS-B (KMTJ)
02:57PM 39.6650 -108.8438 265° West 483 556 36,000  Level FlightAware ADS-B (KMTJ)
02:58PM 39.6593 -108.9319 265° West 484 557 36,000  Level FlightAware ADS-B (KMTJ)
02:58PM 39.6533 -109.0273 265° West 485 558 36,000  Level FlightAware ADS-B (KMTJ)
02:59PM 39.6455 -109.1433 265° West 484 557 36,000  Level FlightAware ADS-B (KMTJ)
02:59PM 39.6396 -109.2324 265° West 486 559 36,000  Level FlightAware ADS-B (KMTJ)
03:00PM 39.6339 -109.3182 265° West 487 560 36,000  Level FlightAware ADS-B (KMTJ)
03:00PM 39.6280 -109.4049 265° West 489 563 36,000  Level FlightAware ADS-B (KMTJ)
03:01PM 39.6216 -109.4978 265° West 486 559 36,000  Level FlightAware ADS-B (KMTJ)
03:01PM 39.6178 -109.5529 265° West 485 558 36,000  Level FlightAware ADS-B (KMTJ)
03:02PM 39.6066 -109.7123 265° West 483 556 36,000  Level FlightAware ADS-B (KMTJ)
03:02PM 39.6009 -109.7923 265° West 484 557 36,000  Level FlightAware ADS-B (KMTJ)
03:03PM 39.5938 -109.8905 265° West 485 558 36,000  Level FlightAware ADS-B (KMTJ)
03:04PM 39.5873 -109.9787 265° West 483 556 36,000  Level FlightAware ADS-B (KMTJ)
03:04PM 39.5806 -110.0682 265° West 481 554 36,000  Level FlightAware ADS-B (KMTJ)
03:05PM 39.5745 -110.1505 264° West 479 551 36,000  Level FlightAware ADS-B (KMTJ)
03:05PM 39.5661 -110.2633 265° West 478 550 36,000  Level FlightAware ADS-B (KMTJ)
03:06PM 39.5594 -110.3509 264° West 476 548 36,000  Level FlightAware ADS-B (KMTJ)
03:06PM 39.5525 -110.4404 264° West 476 548 36,000  Level FlightAware ADS-B (KMTJ)
03:07PM 39.5455 -110.5294 264° West 477 549 36,000  Level FlightAware ADS-B (KMTJ)
03:07PM 39.5387 -110.6165 264° West 480 552 36,000  Level FlightAware ADS-B (KMTJ)
03:08PM 39.5319 -110.7030 264° West 483 556 36,000  Level FlightAware ADS-B (KMTJ)
03:08PM 39.5228 -110.8165 264° West 478 550 36,000  Level FlightAware ADS-B (KMTJ)
03:09PM 39.5163 -110.8955 264° West 480 552 36,000  Level FlightAware ADS-B (KMTJ)
03:09PM 39.5088 -110.9868 264° West 482 555 36,000  Level FlightAware ADS-B (KMTJ)
03:10PM 39.5023 -111.0651 264° West 481 554 36,000  Level FlightAware ADS-B (KMTJ)
03:10PM 39.4949 -111.1550 264° West 481 554 36,000  Level FlightAware ADS-B
03:10PM 39.4942 -111.1621 263° West 481 554 36,000  Level FlightAware ADS-B (KMTJ)
03:11PM 39.4876 -111.2410 264° West 481 554 36,000  Level FlightAware ADS-B
03:11PM 39.4866 -111.2527 264° West 482 555 36,000  Level FlightAware ADS-B (KMTJ)
03:11PM 39.4798 -111.3340 264° West 483 556 36,000  Level FlightAware ADS-B
03:11PM 39.4794 -111.3386 263° West 483 556 36,000  Level FlightAware ADS-B (KMTJ)
03:12PM 39.4721 -111.4230 264° West 484 557 36,000  Level FlightAware ADS-B
03:12PM 39.4719 -111.4258 265° West 484 557 36,000  Level FlightAware ADS-B (KMTJ)
03:12PM 39.4646 -111.5100 264° West 483 556 36,000  Level FlightAware ADS-B
03:13PM 39.4624 -111.5353 264° West 482 555 36,000  Level FlightAware ADS-B
03:13PM 39.4569 -111.5980 264° West 482 555 36,000  Level FlightAware ADS-B
03:13PM 39.4521 -111.6519 263° West 482 555 36,000  Level FlightAware ADS-B
03:13PM 39.4490 -111.6870 263° West 483 556 36,000  Level FlightAware ADS-B
03:14PM 39.4428 -111.7573 263° West 483 556 36,000  Level FlightAware ADS-B
03:14PM 39.4410 -111.7770 263° West 483 556 36,000  Level FlightAware ADS-B
03:15PM 39.4315 -111.8830 263° West 482 555 36,000  Level FlightAware ADS-B
03:15PM 39.4315 -111.8830 38° Northeast 482 555 36,000  Level FlightAware ADS-B
03:15PM 39.4236 -111.9710 263° West 482 555 36,000  Level FlightAware ADS-B
03:15PM 39.4213 -111.9957 263° West 482 555 36,000  Level FlightAware ADS-B
03:16PM 39.4158 -112.0560 263° West 481 554 36,000  Level FlightAware ADS-B
03:16PM 39.4134 -112.0824 263° West 481 554 36,000  Level FlightAware ADS-B
03:16PM 39.4079 -112.1420 263° West 480 552 36,000  Level FlightAware ADS-B
03:16PM 39.4057 -112.1655 263° West 480 552 36,000  Level FlightAware ADS-B
03:17PM 39.3996 -112.2310 263° West 480 552 36,000  Level FlightAware ADS-B
03:17PM 39.3975 -112.2536 263° West 479 551 36,000  Level FlightAware ADS-B
03:17PM 39.3907 -112.3260 263° West 479 551 36,000  Level FlightAware ADS-B
03:17PM 39.3880 -112.3557 263° West 480 552 36,000  Level FlightAware ADS-B
03:18PM 39.3826 -112.4120 263° West 480 552 36,000  Level FlightAware ADS-B
03:18PM 39.3766 -112.4760 263° West 479 551 36,000  Level FlightAware ADS-B
03:18PM 39.3746 -112.4970 263° West 479 551 36,000  Level FlightAware ADS-B
03:19PM 39.3662 -112.5840 263° West 477 549 36,000  Level FlightAware ADS-B
03:19PM 39.3646 -112.6003 263° West 476 548 36,000  Level FlightAware ADS-B
03:19PM 39.3579 -112.6700 263° West 475 547 36,000  Level FlightAware ADS-B
03:19PM 39.3549 -112.7002 263° West 474 545 36,000  Level FlightAware ADS-B
03:20PM 39.3495 -112.7560 263° West 475 547 36,000  Level FlightAware ADS-B
03:20PM 39.3417 -112.8350 263° West 477 549 36,000  Level FlightAware ADS-B
03:20PM 39.3404 -112.8490 263° West 477 549 36,000  Level FlightAware ADS-B
03:21PM 39.3335 -112.9178 263° West 477 549 36,000  Level FlightAware ADS-B
03:21PM 39.3318 -112.9360 263° West 477 549 36,000  Level FlightAware ADS-B
03:21PM 39.3248 -113.0052 263° West 479 551 36,000  Level FlightAware ADS-B
03:21PM 39.3228 -113.0260 263° West 479 551 36,000  Level FlightAware ADS-B
03:22PM 39.3148 -113.1054 263° West 479 551 36,000  Level FlightAware ADS-B
03:22PM 39.3075 -113.1760 262° West 479 551 36,000  Level FlightAware ADS-B
03:22PM 39.3077 -113.1750 76° East 480 552 36,000  Level FlightAware ADS-B
03:23PM 39.2937 -113.3051 262° West 484 557 36,000  Level FlightAware ADS-B
03:24PM 39.2790 -113.4080 260° West 482 555 36,000  Level FlightAware
03:24PM 39.2732 -113.4491 260° West 484 557 36,000  Level FlightAware ADS-B
03:24PM 39.2614 -113.5323 260° West 483 556 36,000  Level FlightAware ADS-B
03:25PM 39.2485 -113.6251 260° West 483 556 36,000  Level FlightAware ADS-B
03:25PM 39.2363 -113.7131 260° West 481 554 36,000  Level FlightAware ADS-B
03:26PM 39.2200 -113.8280 260° West 481 554 36,000  Level FlightAware
03:26PM 39.2114 -113.8925 260° West 481 554 36,000  Level FlightAware ADS-B
03:27PM 39.2000 -113.9720 260° West 480 552 36,000  Level FlightAware
03:28PM 39.1860 -114.0610 259° West 480 552 36,000  Level FlightAware
03:28PM 39.1730 -114.1470 259° West 480 552 36,000  Level FlightAware
03:29PM 39.1600 -114.2330 259° West 480 552 36,000  Level FlightAware
03:29PM 39.1470 -114.3190 259° West 480 552 36,000  Level FlightAware
03:30PM 39.1330 -114.4120 259° West 480 552 36,000  Level FlightAware
03:31PM 39.1200 -114.5000 259° West 480 552 36,000  Level FlightAware
03:31PM 39.1070 -114.5860 259° West 480 552 36,000  Level FlightAware
03:32PM 39.0940 -114.6720 259° West 480 552 36,000  Level FlightAware
03:33PM 39.0810 -114.7600 259° West 480 552 36,000  Level FlightAware
03:33PM 39.0680 -114.8420 258° West 480 552 36,000  Level FlightAware
03:34PM 39.0550 -114.9270 259° West 480 552 36,000  Level FlightAware
03:34PM 39.0420 -115.0160 259° West 480 552 36,000  Level FlightAware
03:35PM 39.0290 -115.1020 259° West 480 552 36,000  Level FlightAware
03:36PM 39.0160 -115.1870 259° West 480 552 36,000  Level FlightAware
03:36PM 39.0030 -115.2730 259° West 480 552 36,000  Level FlightAware
03:38PM 38.9344 -115.7417 259° West 484 557 36,000  Level Salt Lake Center
03:39PM 38.9072 -115.9100 258° West 482 555 36,000  Level Salt Lake Center
03:40PM 38.8758 -116.1114 259° West 481 554 36,000  Level Salt Lake Center
03:41PM 38.8475 -116.2797 258° West 483 556 36,000  Level Salt Lake Center
03:42PM 38.8214 -116.4486 259° West 483 556 36,000  Level Salt Lake Center
03:43PM 38.7936 -116.6169 258° West 485 558 36,000  Level Salt Lake Center
03:44PM 38.7650 -116.7847 258° West 483 556 36,000  Level Salt Lake Center
03:45PM 38.7367 -116.9525 258° West 484 557 36,000  Level Salt Lake Center
03:51PM 38.5530 -118.0240 258° West 483 556 36,000  Level FlightAware
03:51PM 38.5360 -118.1190 257° West 483 556 36,000  Level FlightAware
03:52PM 38.5200 -118.2110 257° West 483 556 36,000  Level FlightAware
03:53PM 38.5030 -118.3060 257° West 483 556 36,000  Level FlightAware
03:53PM 38.4850 -118.4030 257° West 484 557 36,000  Level FlightAware
03:54PM 38.4680 -118.5000 257° West 484 557 36,000  Level FlightAware
03:54PM 38.4490 -118.6040 257° West 483 556 36,000  Level FlightAware
03:55PM 38.4330 -118.6900 257° West 482 555 36,000  Level FlightAware
03:56PM 38.4150 -118.7840 256° West 482 555 36,000  Level FlightAware
03:56PM 38.3929 -118.9085 257° West 483 556 36,000  Level FlightAware ADS-B (KAHC)
03:57PM 38.3625 -119.0101 249° West 490 564 36,000  Level FlightAware ADS-B (KAHC)
03:57PM 38.3329 -119.0930 246° West 490 564 36,000  Level FlightAware ADS-B (KAHC)
03:58PM 38.2936 -119.2036 246° West 490 564 36,000  Level FlightAware ADS-B (KAHC)
03:59PM 38.2616 -119.2944 246° West 490 564 36,000  Level FlightAware ADS-B (KAHC)
03:59PM 38.2240 -119.4230 250° West 485 558 36,000  Level FlightAware
04:00PM 38.2286 -119.3992 76° East 487 560 36,000  Level FlightAware ADS-B (KAHC)
04:01PM 38.2110 -119.6090 264° West 480 552 36,000  Level FlightAware
04:01PM 38.2080 -119.7080 268° West 481 554 36,000  Level FlightAware
04:02PM 38.2057 -119.7739 267° West 481 554 36,000  Level FlightAware ADS-B (KAHC)
04:02PM 38.2010 -119.8940 267° West 480 552 36,000  Level FlightAware
04:03PM 38.1980 -119.9950 268° West 480 552 36,000  Level FlightAware
04:03PM 38.1955 -120.0530 267° West 481 554 36,000  Level FlightAware ADS-B
04:04PM 38.1917 -120.1520 267° West 481 554 36,000  Level FlightAware ADS-B
04:05PM 38.1860 -120.3030 267° West 483 556 36,000  Level FlightAware
04:05PM 38.1820 -120.3970 267° West 484 557 36,000  Level FlightAware
04:06PM 38.1780 -120.4880 267° West 485 558 36,000  Level FlightAware
04:06PM 38.1740 -120.5950 267° West 486 559 36,000  Level FlightAware
04:07PM 38.1708 -120.6640 267° West 487 560 36,000  Level FlightAware ADS-B
04:07PM 38.1695 -120.6933 267° West 487 560 36,000  Level FlightAware ADS-B (KAHC)
04:07PM 38.1671 -120.7500 267° West 487 560 36,000  Level FlightAware ADS-B
04:08PM 38.1632 -120.8370 267° West 487 560 36,000  Level FlightAware ADS-B
04:08PM 38.1593 -120.9230 267° West 486 559 36,000  Level FlightAware ADS-B
04:09PM 38.1553 -121.0100 267° West 485 558 36,000  Level FlightAware ADS-B
04:09PM 38.1513 -121.0970 267° West 485 558 36,000  Level FlightAware ADS-B
04:10PM 38.1470 -121.1890 267° West 486 559 36,000  Level FlightAware ADS-B
04:10PM 38.1428 -121.2770 267° West 487 560 36,000  Level FlightAware ADS-B
04:11PM 38.1380 -121.3730 266° West 485 558 36,000  Level FlightAware
04:11PM 38.1342 -121.4520 267° West 487 560 36,000  Level FlightAware ADS-B
04:12PM 38.1298 -121.5380 266° West 485 558 36,000  Level FlightAware ADS-B
04:12PM 38.1255 -121.6230 266° West 486 559 36,000  Level FlightAware ADS-B
04:13PM 38.1210 -121.7100 266° West 486 559 36,000  Level FlightAware ADS-B
04:13PM 38.1161 -121.8050 266° West 485 558 36,000  Level FlightAware ADS-B
04:14PM 38.1102 -121.9140 266° West 484 557 36,000  Level FlightAware ADS-B
04:15PM 38.1055 -122.0020 266° West 485 558 36,000  Level FlightAware ADS-B
04:15PM 38.1006 -122.0920 266° West 485 558 36,000  Level FlightAware ADS-B
04:16PM 38.0950 -122.1850 266° West 484 557 36,000  Level FlightAware
04:16PM 38.0900 -122.2740 266° West 484 557 36,000  Level FlightAware
04:17PM 38.0830 -122.4040 266° West 483 556 36,000  Level FlightAware
04:18PM 38.0770 -122.4960 265° West 483 556 36,000  Level FlightAware
04:18PM 38.0710 -122.6040 266° West 483 556 36,000  Level FlightAware
04:19PM 38.0660 -122.6870 266° West 483 556 36,000  Level FlightAware
04:19PM 38.0590 -122.8010 266° West 483 556 36,000  Level FlightAware
04:20PM 38.0540 -122.8910 266° West 484 557 36,000  Level FlightAware
04:21PM 38.0490 -122.9920 266° West 484 557 36,000  Level FlightAware
04:21PM 38.0510 -123.0890 272° West 483 556 36,000  Level FlightAware
04:22PM 38.0550 -123.1800 273° West 484 557 36,000  Level FlightAware
04:22PM 38.0590 -123.2940 273° West 484 557 36,000  Level FlightAware
04:23PM 38.0630 -123.3970 273° West 485 558 36,000  Level FlightAware
04:23PM 38.0660 -123.4900 272° West 485 558 36,000  Level FlightAware
04:24PM 38.0700 -123.6040 273° West 486 559 36,000  Level FlightAware
04:25PM 38.0730 -123.6990 272° West 485 558 36,000  Level FlightAware
04:25PM 38.0750 -123.7960 272° West 485 558 36,000  Level FlightAware
04:26PM 38.0780 -123.8900 272° West 485 558 36,000  Level FlightAware
04:27PM 38.0810 -123.9800 272° West 485 558 36,000  Level FlightAware
04:27PM 38.0830 -124.0670 272° West 485 558 36,000  Level FlightAware
04:28PM 38.0850 -124.1590 272° West 485 558 36,000  Level FlightAware
04:29PM 38.0880 -124.2510 272° West 485 558 36,000  Level FlightAware
04:29PM 38.0900 -124.3380 272° West 485 558 36,000  Level FlightAware
04:30PM 38.0930 -124.4260 273° West 485 558 36,000  Level FlightAware
04:30PM 38.0950 -124.5130 272° West 485 558 36,000  Level FlightAware
04:31PM 38.0970 -124.5950 272° West 485 558 36,000  Level FlightAware
04:32PM 38.1000 -124.6820 273° West 485 558 36,000  Level FlightAware
04:32PM 38.1020 -124.7720 272° West 485 558 36,000  Level FlightAware
04:33PM 38.1050 -124.8640 272° West 485 558 36,000  Level FlightAware
04:33PM 38.1070 -124.9540 272° West 485 558 36,000  Level FlightAware
04:34PM 38.1100 -125.0410 273° West 485 558 36,000  Level FlightAware
04:35PM 38.1120 -125.1280 272° West 485 558 36,000  Level FlightAware
04:35PM 38.1192 -125.4914 272° West 488 562 36,000 -60 Level Oakland Center
04:36PM 38.1211 -125.6639 271° West 487 560 35,900 -60 Descending Oakland Center
04:37PM 38.1250 -125.8372 272° West 492 566 35,900  Level Oakland Center
04:38PM 38.1261 -126.0458 270° West 494 568 35,900  Level Oakland Center
04:39PM 38.1275 -126.2186 271° West 491 565 36,000  Climbing Oakland Center
04:40PM 38.1286 -126.3844 271° West 493 567 35,900  Descending Oakland Center
04:41PM 38.1294 -126.5592 270° West 495 570 36,000  Climbing Oakland Center
04:42PM 38.1308 -126.7336 271° West 495 570 36,000 -60 Level Oakland Center
04:43PM 38.1314 -126.9417 270° West 493 567 35,900  Descending Oakland Center
04:44PM 38.1333 -127.0000 288° West 489 563 36,000  Climbing Oakland Oceanic (ODAPS)
04:52PM 38.4539 -128.3261 287° West 489 563 36,000  Level FlightAware Transoceanic
04:52PM 38.4500 -128.3000 287° West 493 567 36,000  Level Oakland Oceanic (ODAPS)
04:53PM 38.4929 -128.4927 287° West 489 563 36,000  Level FlightAware Transoceanic
04:54PM 38.5317 -128.6595 286° West 489 563 36,000  Level FlightAware Transoceanic
04:55PM 38.5702 -128.8264 286° West 489 563 36,000  Level FlightAware Transoceanic
04:56PM 38.6085 -128.9935 286° West 489 563 36,000  Level FlightAware Transoceanic
04:57PM 38.6466 -129.1608 286° West 489 563 36,000  Level FlightAware Transoceanic
04:58PM 38.6829 -129.3178 286° West 493 567 36,000  Level FlightAware Transoceanic
04:59PM 38.7209 -129.4881 286° West 493 567 36,000  Level FlightAware Transoceanic
05:00PM 38.7586 -129.6586 286° West 493 567 36,000  Level FlightAware Transoceanic
05:01PM 38.7961 -129.8292 286° West 493 567 36,000  Level FlightAware Transoceanic
05:02PM 38.8333 -130.0000 274° West 493 567 36,000  Level FlightAware Transoceanic
05:02PM 38.8333 -130.0000 274° West 483 556 36,000  Level Oakland Oceanic (ODAPS)
05:03PM 38.8434 -130.1717 274° West 493 567 36,000  Level FlightAware Transoceanic
05:04PM 38.8533 -130.3434 274° West 493 567 36,000  Level FlightAware Transoceanic
05:05PM 38.8629 -130.5152 274° West 493 567 36,000  Level FlightAware Transoceanic
05:06PM 38.8722 -130.6870 274° West 493 567 36,000  Level FlightAware Transoceanic
05:06PM 38.8667 -130.6167 274° West 481 554 36,000  Level Oakland Oceanic (ODAPS)
05:07PM 38.8813 -130.8589 274° West 493 567 36,000  Level FlightAware Transoceanic
05:08PM 38.8901 -131.0308 274° West 483 556 36,000  Level FlightAware Transoceanic
05:09PM 38.8987 -131.2028 274° West 483 556 36,000  Level FlightAware Transoceanic
05:10PM 38.9070 -131.3748 274° West 483 556 36,000  Level FlightAware Transoceanic
05:11PM 38.9151 -131.5468 273° West 483 556 36,000  Level FlightAware Transoceanic
05:12PM 38.9177 -131.6373 273° West 481 554 36,000  Level FlightAware Transoceanic
05:13PM 38.9254 -131.8076 273° West 481 554 36,000  Level FlightAware Transoceanic
05:13PM 38.9333 -131.7833 273° West 477 549 36,000  Level Oakland Oceanic (ODAPS)
05:14PM 38.9327 -131.9779 273° West 481 554 36,000  Level FlightAware Transoceanic
05:15PM 38.9399 -132.1482 273° West 481 554 36,000  Level FlightAware Transoceanic
05:16PM 38.9468 -132.3185 273° West 481 554 36,000  Level FlightAware Transoceanic
05:17PM 38.9534 -132.4889 273° West 481 554 36,000  Level FlightAware Transoceanic
05:18PM 38.9599 -132.6593 273° West 481 554 36,000  Level FlightAware Transoceanic
05:19PM 38.9732 -132.8087 273° West 477 549 36,000  Level FlightAware Transoceanic
05:20PM 38.9790 -132.9796 272° West 477 549 36,000  Level FlightAware Transoceanic
05:20PM 38.9667 -132.9333 273° West 477 549 36,000  Level Oakland Oceanic (ODAPS)
05:21PM 38.9845 -133.1507 272° West 477 549 36,000  Level FlightAware Transoceanic
05:22PM 38.9897 -133.3217 272° West 477 549 36,000  Level FlightAware Transoceanic
05:23PM 38.9948 -133.4928 272° West 477 549 36,000  Level FlightAware Transoceanic
05:24PM 38.9995 -133.6639 272° West 477 549 36,000  Level FlightAware Transoceanic
05:25PM 39.0041 -133.8350 272° West 477 549 36,000  Level FlightAware Transoceanic
05:26PM 38.9982 -133.9664 272° West 477 549 36,000  Level FlightAware Transoceanic
05:27PM 39.0025 -134.1387 272° West 477 549 36,000  Level FlightAware Transoceanic
05:28PM 39.0066 -134.3110 272° West 477 549 36,000  Level FlightAware Transoceanic
05:29PM 39.0105 -134.4833 272° West 477 549 36,000  Level FlightAware Transoceanic
05:30PM 39.0141 -134.6556 271° West 477 549 36,000  Level FlightAware Transoceanic
05:31PM 39.0175 -134.8280 271° West 477 549 36,000  Level FlightAware Transoceanic
05:32PM 39.0206 -135.0003 271° West 477 549 36,000  Level FlightAware Transoceanic
05:33PM 39.0234 -135.1727 271° West 477 549 36,000 1,020 Level FlightAware Transoceanic
05:33PM 39.0333 -135.2833 271° West 479 551 38,000  Climbing Oakland Oceanic (ODAPS)
05:34PM 39.0260 -135.3451 271° West 477 549 36,000 -1,860 Descending FlightAware Transoceanic
05:35PM 39.0283 -135.5175 271° West 477 549 36,000  Level FlightAware Transoceanic
05:36PM 39.0304 -135.6899 271° West 477 549 36,000  Level FlightAware Transoceanic
05:37PM 39.0322 -135.8623 271° West 477 549 36,000  Level FlightAware Transoceanic
05:38PM 39.0338 -136.0347 271° West 477 549 36,000  Level FlightAware Transoceanic
05:39PM 39.0351 -136.2072 271° West 477 549 36,000 960 Level FlightAware Transoceanic
05:40PM 39.0424 -136.3317 270° West 479 551 38,000 960 Climbing FlightAware Transoceanic
05:41PM 39.0429 -136.5064 270° West 479 551 38,000  Level FlightAware Transoceanic
05:42PM 39.0433 -136.6812 270° West 479 551 38,000  Level FlightAware Transoceanic
05:43PM 39.0433 -136.8559 270° West 479 551 38,000  Level FlightAware Transoceanic
05:44PM 39.0431 -137.0306 270° West 479 551 38,000  Level FlightAware Transoceanic
05:45PM 39.0427 -137.2054 270° West 479 551 38,000  Level FlightAware Transoceanic
05:46PM 39.0420 -137.3801 270° West 479 551 38,000  Level FlightAware Transoceanic
05:47PM 39.0410 -137.5549 270° West 479 551 38,000  Level FlightAware Transoceanic
05:47PM 39.0333 -137.6667 270° West 481 554 38,000  Level Oakland Oceanic (ODAPS)
05:48PM 39.0398 -137.7296 269° West 479 551 38,000  Level FlightAware Transoceanic
05:49PM 39.0383 -137.9043 269° West 479 551 38,000  Level FlightAware Transoceanic
05:50PM 39.0365 -138.0790 269° West 479 551 38,000  Level FlightAware Transoceanic
05:51PM 39.0345 -138.2537 269° West 479 551 38,000  Level FlightAware Transoceanic
05:52PM 39.0322 -138.4284 269° West 479 551 38,000  Level FlightAware Transoceanic
05:53PM 39.0297 -138.6031 269° West 479 551 38,000  Level FlightAware Transoceanic
05:54PM 39.0225 -138.8336 269° West 481 554 38,000  Level FlightAware Transoceanic
05:55PM 39.0200 -139.0003 269° West 481 554 38,000  Level FlightAware Transoceanic
05:56PM 39.0172 -139.1669 269° West 481 554 38,000  Level FlightAware Transoceanic
05:57PM 39.0143 -139.3336 269° West 481 554 38,000  Level FlightAware Transoceanic
05:58PM 39.0111 -139.5002 269° West 481 554 38,000  Level FlightAware Transoceanic
05:59PM 39.0076 -139.6668 268° West 481 554 38,000  Level FlightAware Transoceanic
06:00PM 39.0039 -139.8334 268° West 481 554 38,000  Level FlightAware Transoceanic
06:01PM 39.0000 -140.0000 273° West 481 554 38,000  Level FlightAware Transoceanic
06:01PM 39.0000 -140.0000 273° West 484 557 38,000  Level Oakland Oceanic (ODAPS)
06:01PM 39.0000 -140.0500 273° West 487 560 38,000  Level Oakland Oceanic (ODAPS)
06:02PM 39.0075 -140.1782 273° West 481 554 38,000  Level FlightAware Transoceanic
06:03PM 39.0147 -140.3565 273° West 481 554 38,000  Level FlightAware Transoceanic
06:04PM 39.0217 -140.5348 273° West 481 554 38,000  Level FlightAware Transoceanic
06:05PM 39.0283 -140.7131 273° West 481 554 38,000  Level FlightAware Transoceanic
06:06PM 39.0347 -140.8915 273° West 481 554 38,000  Level FlightAware Transoceanic
06:07PM 39.0396 -141.0330 273° West 484 557 38,000  Level FlightAware Transoceanic
06:08PM 39.0449 -141.2493 272° West 487 560 38,000  Level FlightAware Transoceanic
06:09PM 39.0503 -141.4207 272° West 487 560 38,000  Level FlightAware Transoceanic
06:10PM 39.0555 -141.5922 272° West 487 560 38,000  Level FlightAware Transoceanic
06:11PM 39.0604 -141.7637 272° West 487 560 38,000  Level FlightAware Transoceanic
06:12PM 39.0650 -141.9352 272° West 487 560 38,000  Level FlightAware Transoceanic
06:13PM 39.0694 -142.1067 272° West 487 560 38,000  Level FlightAware Transoceanic
06:14PM 39.0736 -142.2783 272° West 487 560 38,000  Level FlightAware Transoceanic
06:15PM 39.0775 -142.4498 272° West 487 560 38,000  Level FlightAware Transoceanic
06:15PM 39.0833 -142.4667 272° West 489 563 38,000  Level Oakland Oceanic (ODAPS)
06:16PM 39.0811 -142.6214 272° West 487 560 38,000  Level FlightAware Transoceanic
06:17PM 39.0845 -142.7930 271° West 487 560 38,000  Level FlightAware Transoceanic
06:18PM 39.0877 -142.9647 271° West 487 560 38,000  Level FlightAware Transoceanic
06:19PM 39.0906 -143.1363 271° West 487 560 38,000  Level FlightAware Transoceanic
06:20PM 39.0932 -143.3080 271° West 487 560 38,000  Level FlightAware Transoceanic
06:21PM 39.1008 -143.5181 271° West 489 563 38,000  Level FlightAware Transoceanic
06:22PM 39.1028 -143.6934 271° West 489 563 38,000  Level FlightAware Transoceanic
06:23PM 39.1046 -143.8687 271° West 489 563 38,000  Level FlightAware Transoceanic
06:24PM 39.1060 -144.0441 271° West 489 563 38,000  Level FlightAware Transoceanic
06:25PM 39.1073 -144.2194 270° West 489 563 38,000  Level FlightAware Transoceanic
06:26PM 39.1082 -144.3947 270° West 489 563 38,000  Level FlightAware Transoceanic
06:27PM 39.1089 -144.5700 270° West 489 563 38,000  Level FlightAware Transoceanic
06:28PM 39.1093 -144.7453 270° West 489 563 38,000  Level FlightAware Transoceanic
06:29PM 39.1095 -144.9207 270° West 489 563 38,000  Level FlightAware Transoceanic
06:29PM 39.1000 -144.8500 270° West 474 545 38,000  Level Oakland Oceanic (ODAPS)
06:30PM 39.1094 -145.0960 270° West 489 563 38,000  Level FlightAware Transoceanic
06:31PM 39.1090 -145.2713 270° West 489 563 38,000  Level FlightAware Transoceanic
06:32PM 39.1084 -145.4467 270° West 489 563 38,000  Level FlightAware Transoceanic
06:33PM 39.1075 -145.6220 270° West 489 563 38,000  Level FlightAware Transoceanic
06:34PM 39.1063 -145.7973 269° West 489 563 38,000  Level FlightAware Transoceanic
06:35PM 39.0983 -145.8477 270° West 474 545 38,000  Level FlightAware Transoceanic
06:36PM 39.0972 -146.0139 269° West 474 545 38,000  Level FlightAware Transoceanic
06:37PM 39.0959 -146.1802 269° West 474 545 38,000  Level FlightAware Transoceanic
06:38PM 39.0943 -146.3464 269° West 474 545 38,000  Level FlightAware Transoceanic
06:39PM 39.0925 -146.5127 269° West 474 545 38,000  Level FlightAware Transoceanic
06:40PM 39.0905 -146.6789 269° West 474 545 38,000  Level FlightAware Transoceanic
06:41PM 39.0882 -146.8451 269° West 474 545 38,000  Level FlightAware Transoceanic
06:42PM 39.0857 -147.0114 269° West 474 545 38,000  Level FlightAware Transoceanic
06:43PM 39.0829 -147.1776 269° West 474 545 38,000  Level FlightAware Transoceanic
06:43PM 39.0833 -147.2000 269° West 487 560 38,000  Level Oakland Oceanic (ODAPS)
06:44PM 39.0799 -147.3437 269° West 474 545 38,000  Level FlightAware Transoceanic
06:45PM 39.0767 -147.5099 269° West 474 545 38,000  Level FlightAware Transoceanic
06:46PM 39.0732 -147.6761 268° West 474 545 38,000  Level FlightAware Transoceanic
06:47PM 39.0695 -147.8422 268° West 474 545 38,000  Level FlightAware Transoceanic
06:48PM 39.0656 -148.0083 268° West 474 545 38,000  Level FlightAware Transoceanic
06:49PM 39.0599 -148.2507 268° West 487 560 38,000  Level FlightAware Transoceanic
06:50PM 39.0551 -148.4258 268° West 487 560 38,000  Level FlightAware Transoceanic
06:51PM 39.0500 -148.6008 268° West 487 560 38,000  Level FlightAware Transoceanic
06:52PM 39.0447 -148.7758 268° West 487 560 38,000  Level FlightAware Transoceanic
06:53PM 39.0391 -148.9508 268° West 487 560 38,000  Level FlightAware Transoceanic
06:54PM 39.0332 -149.1257 267° West 487 560 38,000  Level FlightAware Transoceanic
06:55PM 39.0271 -149.3007 267° West 487 560 38,000  Level FlightAware Transoceanic
06:56PM 39.0207 -149.4756 267° West 487 560 38,000  Level FlightAware Transoceanic
06:57PM 39.0141 -149.6504 267° West 487 560 38,000  Level FlightAware Transoceanic
06:57PM 39.0167 -149.6333 267° West 487 560 38,000  Level Oakland Oceanic (ODAPS)
06:58PM 39.0072 -149.8252 267° West 487 560 38,000  Level FlightAware Transoceanic
06:59PM 39.0000 -150.0000 266° West 487 560 38,000  Level FlightAware Transoceanic
06:59PM 39.0000 -150.0000 266° West 491 565 38,000  Level Oakland Oceanic (ODAPS)
07:00PM 38.9900 -150.1745 266° West 487 560 38,000  Level FlightAware Transoceanic
07:01PM 38.9798 -150.3489 266° West 487 560 38,000  Level FlightAware Transoceanic
07:02PM 38.9693 -150.5232 266° West 487 560 38,000  Level FlightAware Transoceanic
07:03PM 38.9586 -150.6976 265° West 487 560 38,000  Level FlightAware Transoceanic
07:04PM 38.9476 -150.8718 265° West 487 560 38,000  Level FlightAware Transoceanic
07:05PM 38.9364 -151.0460 265° West 491 565 38,000  Level FlightAware Transoceanic
07:06PM 38.9248 -151.2202 265° West 491 565 38,000  Level FlightAware Transoceanic
07:07PM 38.9131 -151.3943 265° West 491 565 38,000  Level FlightAware Transoceanic
07:08PM 38.9010 -151.5683 265° West 491 565 38,000  Level FlightAware Transoceanic
07:09PM 38.8887 -151.7422 265° West 491 565 38,000  Level FlightAware Transoceanic
07:10PM 38.8762 -151.9162 265° West 491 565 38,000  Level FlightAware Transoceanic
07:10PM 38.8667 -152.0167 265° West 497 572 38,000  Level Oakland Oceanic (ODAPS)
07:11PM 38.8634 -152.0900 265° West 491 565 38,000  Level FlightAware Transoceanic
07:12PM 38.8503 -152.2638 264° West 491 565 38,000  Level FlightAware Transoceanic
07:13PM 38.8370 -152.4375 264° West 491 565 38,000  Level FlightAware Transoceanic
07:14PM 38.8234 -152.6112 264° West 491 565 38,000  Level FlightAware Transoceanic
07:15PM 38.8096 -152.7848 264° West 491 565 38,000  Level FlightAware Transoceanic
07:16PM 38.7955 -152.9583 264° West 491 565 38,000  Level FlightAware Transoceanic
07:17PM 38.7826 -153.0914 264° West 497 572 38,000  Level FlightAware Transoceanic
07:18PM 38.7677 -153.2703 264° West 497 572 38,000  Level FlightAware Transoceanic
07:19PM 38.7524 -153.4491 264° West 497 572 38,000  Level FlightAware Transoceanic
07:20PM 38.7369 -153.6278 264° West 497 572 38,000  Level FlightAware Transoceanic
07:21PM 38.7212 -153.8064 263° West 497 572 38,000  Level FlightAware Transoceanic
07:22PM 38.7051 -153.9850 263° West 497 572 38,000  Level FlightAware Transoceanic
07:23PM 38.6888 -154.1635 263° West 497 572 38,000  Level FlightAware Transoceanic
07:24PM 38.6722 -154.3419 263° West 497 572 38,000 1,080 Level FlightAware Transoceanic
07:24PM 38.6667 -154.4500 263° West 509 586 40,000  Climbing Oakland Oceanic (ODAPS)
07:25PM 38.6553 -154.5202 263° West 497 572 38,000 -1,680 Descending FlightAware Transoceanic
07:26PM 38.6382 -154.6984 263° West 497 572 38,000  Level FlightAware Transoceanic
07:27PM 38.6208 -154.8766 263° West 497 572 38,000  Level FlightAware Transoceanic
07:28PM 38.6031 -155.0546 263° West 497 572 38,000  Level FlightAware Transoceanic
07:29PM 38.5852 -155.2326 263° West 497 572 38,000  Level FlightAware Transoceanic
07:30PM 38.5670 -155.4105 262° West 497 572 38,000 960 Level FlightAware Transoceanic
07:31PM 38.5581 -155.5319 262° West 509 586 40,000 960 Climbing FlightAware Transoceanic
07:32PM 38.5391 -155.7119 262° West 509 586 40,000  Level FlightAware Transoceanic
07:33PM 38.5198 -155.8918 262° West 509 586 40,000  Level FlightAware Transoceanic
07:34PM 38.5002 -156.0716 262° West 509 586 40,000  Level FlightAware Transoceanic
07:35PM 38.4803 -156.2513 262° West 509 586 40,000  Level FlightAware Transoceanic
07:36PM 38.4601 -156.4308 262° West 509 586 40,000  Level FlightAware Transoceanic
07:37PM 38.4397 -156.6104 262° West 509 586 40,000  Level FlightAware Transoceanic
07:38PM 38.4190 -156.7897 262° West 509 586 40,000  Level FlightAware Transoceanic
07:38PM 38.4000 -156.9333 262° West 509 586 40,000  Level Oakland Oceanic (ODAPS)
07:39PM 38.3980 -156.9690 261° West 509 586 40,000  Level FlightAware Transoceanic
07:40PM 38.3768 -157.1482 261° West 509 586 40,000  Level FlightAware Transoceanic
07:41PM 38.3553 -157.3273 261° West 509 586 40,000  Level FlightAware Transoceanic
07:42PM 38.3335 -157.5063 261° West 509 586 40,000  Level FlightAware Transoceanic
07:43PM 38.3114 -157.6851 261° West 509 586 40,000  Level FlightAware Transoceanic
07:44PM 38.2891 -157.8639 261° West 509 586 40,000  Level FlightAware Transoceanic
07:45PM 38.2539 -158.1299 261° West 509 586 40,000  Level FlightAware Transoceanic
07:46PM 38.2321 -158.3004 261° West 509 586 40,000  Level FlightAware Transoceanic
07:47PM 38.2100 -158.4709 261° West 509 586 40,000  Level FlightAware Transoceanic
07:48PM 38.1876 -158.6412 260° West 509 586 40,000  Level FlightAware Transoceanic
07:49PM 38.1650 -158.8114 260° West 509 586 40,000  Level FlightAware Transoceanic
07:50PM 38.1422 -158.9816 260° West 509 586 40,000  Level FlightAware Transoceanic
07:51PM 38.1191 -159.1516 260° West 509 586 40,000  Level FlightAware Transoceanic
07:52PM 38.0958 -159.3215 260° West 509 586 40,000  Level FlightAware Transoceanic
07:52PM 38.1000 -159.2833 260° West 469 540 40,000  Level Oakland Oceanic (ODAPS)
07:53PM 38.0722 -159.4913 260° West 509 586 40,000  Level FlightAware Transoceanic
07:54PM 38.0484 -159.6610 260° West 509 586 40,000  Level FlightAware Transoceanic
07:55PM 38.0243 -159.8305 260° West 509 586 40,000  Level FlightAware Transoceanic
07:56PM 38.0000 -160.0000 253° West 509 586 40,000  Level FlightAware Transoceanic
07:57PM 37.9597 -160.1621 252° West 509 586 40,000  Level FlightAware Transoceanic
07:57PM 38.0000 -160.0000 253° West 483 556 40,000  Level Oakland Oceanic (ODAPS)
07:58PM 37.9597 -160.1621 252° West 469 540 40,000  Level FlightAware Transoceanic
07:59PM 37.9193 -160.3241 252° West 469 540 40,000  Level FlightAware Transoceanic
08:00PM 37.8786 -160.4858 252° West 469 540 40,000  Level FlightAware Transoceanic
08:01PM 37.8377 -160.6474 252° West 469 540 40,000  Level FlightAware Transoceanic
08:02PM 37.7965 -160.8088 252° West 469 540 40,000  Level FlightAware Transoceanic
08:03PM 37.7551 -160.9700 252° West 483 556 40,000  Level FlightAware Transoceanic
08:04PM 37.7136 -161.1311 252° West 483 556 40,000  Level FlightAware Transoceanic
08:05PM 37.6718 -161.2919 252° West 483 556 40,000  Level FlightAware Transoceanic
08:06PM 37.6297 -161.4526 252° West 483 556 40,000  Level FlightAware Transoceanic
08:06PM 37.6167 -161.5167 252° West 484 557 40,000  Level Oakland Oceanic (ODAPS)
08:07PM 37.5875 -161.6131 252° West 483 556 40,000  Level FlightAware Transoceanic
08:08PM 37.5451 -161.7734 251° West 483 556 40,000  Level FlightAware Transoceanic
08:09PM 37.5024 -161.9335 251° West 483 556 40,000  Level FlightAware Transoceanic
08:10PM 37.4595 -162.0935 251° West 483 556 40,000  Level FlightAware Transoceanic
08:11PM 37.4164 -162.2533 251° West 483 556 40,000  Level FlightAware Transoceanic
08:12PM 37.3610 -162.4696 251° West 484 557 40,000  Level FlightAware Transoceanic
08:13PM 37.3176 -162.6277 251° West 484 557 40,000  Level FlightAware Transoceanic
08:14PM 37.2741 -162.7857 251° West 484 557 40,000  Level FlightAware Transoceanic
08:15PM 37.2303 -162.9435 251° West 484 557 40,000  Level FlightAware Transoceanic
08:16PM 37.1863 -163.1012 251° West 484 557 40,000  Level FlightAware Transoceanic
08:17PM 37.1421 -163.2586 251° West 484 557 40,000  Level FlightAware Transoceanic
08:18PM 37.0977 -163.4159 250° West 484 557 40,000  Level FlightAware Transoceanic
08:19PM 37.0531 -163.5730 250° West 484 557 40,000  Level FlightAware Transoceanic
08:20PM 37.0083 -163.7299 250° West 484 557 40,000  Level FlightAware Transoceanic
08:20PM 37.0167 -163.7000 250° West 476 548 40,000  Level Oakland Oceanic (ODAPS)
08:21PM 36.9633 -163.8866 250° West 484 557 40,000  Level FlightAware Transoceanic
08:22PM 36.9180 -164.0431 250° West 484 557 40,000  Level FlightAware Transoceanic
08:23PM 36.8726 -164.1994 250° West 484 557 40,000  Level FlightAware Transoceanic
08:24PM 36.8270 -164.3556 250° West 484 557 40,000  Level FlightAware Transoceanic
08:25PM 36.7811 -164.5115 250° West 484 557 40,000  Level FlightAware Transoceanic
08:26PM 36.7424 -164.6420 250° West 476 548 40,000  Level FlightAware Transoceanic
08:27PM 36.6960 -164.7983 250° West 476 548 40,000  Level FlightAware Transoceanic
08:28PM 36.6494 -164.9545 250° West 476 548 40,000  Level FlightAware Transoceanic
08:29PM 36.6026 -165.1105 249° West 476 548 40,000  Level FlightAware Transoceanic
08:30PM 36.5555 -165.2662 249° West 476 548 40,000  Level FlightAware Transoceanic
08:31PM 36.5083 -165.4218 249° West 476 548 40,000  Level FlightAware Transoceanic
08:32PM 36.4608 -165.5772 249° West 476 548 40,000  Level FlightAware Transoceanic
08:33PM 36.4132 -165.7324 249° West 476 548 40,000  Level FlightAware Transoceanic
08:34PM 36.3653 -165.8874 249° West 476 548 40,000  Level FlightAware Transoceanic
08:34PM 36.3833 -165.8167 249° West 475 547 40,000  Level Oakland Oceanic (ODAPS)
08:35PM 36.3173 -166.0422 249° West 476 548 40,000  Level FlightAware Transoceanic
08:36PM 36.2691 -166.1969 249° West 476 548 40,000  Level FlightAware Transoceanic
08:37PM 36.2206 -166.3513 249° West 476 548 40,000  Level FlightAware Transoceanic
08:38PM 36.1720 -166.5056 249° West 476 548 40,000  Level FlightAware Transoceanic
08:39PM 36.1232 -166.6596 249° West 476 548 40,000  Level FlightAware Transoceanic
08:40PM 36.0992 -166.7253 249° West 475 547 40,000  Level FlightAware Transoceanic
08:41PM 36.0512 -166.8761 248° West 475 547 40,000  Level FlightAware Transoceanic
08:42PM 36.0030 -167.0267 248° West 475 547 40,000  Level FlightAware Transoceanic
08:43PM 35.9546 -167.1771 248° West 475 547 40,000  Level FlightAware Transoceanic
08:44PM 35.9060 -167.3274 248° West 475 547 40,000  Level FlightAware Transoceanic
08:45PM 35.8572 -167.4774 248° West 475 547 40,000  Level FlightAware Transoceanic
08:46PM 35.8082 -167.6273 248° West 475 547 40,000  Level FlightAware Transoceanic
08:47PM 35.7591 -167.7770 248° West 475 547 40,000  Level FlightAware Transoceanic
08:48PM 35.7098 -167.9265 248° West 475 547 40,000  Level FlightAware Transoceanic
08:48PM 35.7167 -167.9000 248° West 466 536 40,000  Level Oakland Oceanic (ODAPS)
08:49PM 35.6603 -168.0758 248° West 475 547 40,000  Level FlightAware Transoceanic
08:50PM 35.6105 -168.2249 248° West 475 547 40,000  Level FlightAware Transoceanic
08:51PM 35.5607 -168.3739 248° West 475 547 40,000  Level FlightAware Transoceanic
08:52PM 35.5106 -168.5226 247° West 475 547 40,000  Level FlightAware Transoceanic
08:53PM 35.4604 -168.6712 247° West 475 547 40,000  Level FlightAware Transoceanic
08:54PM 35.4140 -168.8046 247° West 466 536 40,000  Level FlightAware Transoceanic
08:55PM 35.3629 -168.9547 247° West 466 536 40,000  Level FlightAware Transoceanic
08:56PM 35.3116 -169.1046 247° West 466 536 40,000  Level FlightAware Transoceanic
08:57PM 35.2601 -169.2543 247° West 466 536 40,000  Level FlightAware Transoceanic
08:58PM 35.2085 -169.4038 247° West 466 536 40,000  Level FlightAware Transoceanic
08:59PM 35.1566 -169.5531 247° West 466 536 40,000  Level FlightAware Transoceanic
09:00PM 35.1046 -169.7023 247° West 466 536 40,000  Level FlightAware Transoceanic
09:01PM 35.0524 -169.8512 247° West 466 536 40,000  Level FlightAware Transoceanic
09:01PM 35.0333 -169.9167 244° Southwest 462 532 40,000  Level Oakland Oceanic (ODAPS)
09:02PM 35.0000 -170.0000 259° West 466 536 40,000  Level FlightAware Transoceanic
09:02PM 35.0000 -170.0000 259° West 461 531 40,000  Level Oakland Oceanic (ODAPS)
09:03PM 34.9759 -170.1549 259° West 466 536 40,000  Level FlightAware Transoceanic
09:04PM 34.9515 -170.3096 259° West 466 536 40,000  Level FlightAware Transoceanic
09:05PM 34.9270 -170.4643 259° West 466 536 40,000  Level FlightAware Transoceanic
09:06PM 34.9023 -170.6189 259° West 466 536 40,000  Level FlightAware Transoceanic
09:07PM 34.8773 -170.7734 259° West 466 536 40,000  Level FlightAware Transoceanic
09:08PM 34.8545 -170.9140 259° West 461 531 40,000  Level FlightAware Transoceanic
09:09PM 34.8296 -171.0660 259° West 461 531 40,000  Level FlightAware Transoceanic
09:10PM 34.8045 -171.2179 259° West 461 531 40,000  Level FlightAware Transoceanic
09:11PM 34.7792 -171.3697 258° West 461 531 40,000  Level FlightAware Transoceanic
09:12PM 34.7537 -171.5215 258° West 461 531 40,000  Level FlightAware Transoceanic
09:13PM 34.7280 -171.6731 258° West 461 531 40,000  Level FlightAware Transoceanic
09:14PM 34.7021 -171.8246 258° West 461 531 40,000  Level FlightAware Transoceanic
09:15PM 34.6761 -171.9761 258° West 461 531 40,000  Level FlightAware Transoceanic
09:15PM 34.6667 -172.0167 258° West 461 531 40,000  Level Oakland Oceanic (ODAPS)
09:16PM 34.6499 -172.1275 258° West 461 531 40,000  Level FlightAware Transoceanic
09:17PM 34.6234 -172.2787 258° West 461 531 40,000  Level FlightAware Transoceanic
09:18PM 34.5968 -172.4299 258° West 461 531 40,000  Level FlightAware Transoceanic
09:19PM 34.5700 -172.5809 258° West 461 531 40,000  Level FlightAware Transoceanic
09:20PM 34.5431 -172.7319 258° West 461 531 40,000  Level FlightAware Transoceanic
09:21PM 34.5073 -172.9187 258° West 461 531 40,000  Level FlightAware Transoceanic
09:22PM 34.4800 -173.0687 258° West 461 531 40,000  Level FlightAware Transoceanic
09:23PM 34.4526 -173.2186 257° West 461 531 40,000  Level FlightAware Transoceanic
09:24PM 34.4251 -173.3684 257° West 461 531 40,000  Level FlightAware Transoceanic
09:25PM 34.3973 -173.5181 257° West 461 531 40,000  Level FlightAware Transoceanic
09:26PM 34.3694 -173.6676 257° West 461 531 40,000  Level FlightAware Transoceanic
09:27PM 34.3412 -173.8172 257° West 461 531 40,000  Level FlightAware Transoceanic
09:28PM 34.3129 -173.9666 257° West 461 531 40,000  Level FlightAware Transoceanic
09:29PM 34.2844 -174.1158 257° West 461 531 40,000  Level FlightAware Transoceanic
09:29PM 34.2833 -174.1000 257° West 460 529 40,000  Level Oakland Oceanic (ODAPS)
09:30PM 34.2558 -174.2650 257° West 461 531 40,000  Level FlightAware Transoceanic
09:31PM 34.2269 -174.4141 257° West 461 531 40,000  Level FlightAware Transoceanic
09:32PM 34.1979 -174.5631 257° West 461 531 40,000  Level FlightAware Transoceanic
09:33PM 34.1687 -174.7120 257° West 461 531 40,000  Level FlightAware Transoceanic
09:34PM 34.1393 -174.8608 257° West 461 531 40,000  Level FlightAware Transoceanic
09:35PM 34.1089 -174.9960 257° West 460 529 40,000  Level FlightAware Transoceanic
09:36PM 34.0792 -175.1450 256° West 460 529 40,000  Level FlightAware Transoceanic
09:37PM 34.0493 -175.2939 256° West 460 529 40,000  Level FlightAware Transoceanic
09:38PM 34.0192 -175.4427 256° West 460 529 40,000  Level FlightAware Transoceanic
09:39PM 33.9890 -175.5913 256° West 460 529 40,000  Level FlightAware Transoceanic
09:40PM 33.9585 -175.7399 256° West 460 529 40,000  Level FlightAware Transoceanic
09:41PM 33.9279 -175.8883 256° West 460 529 40,000  Level FlightAware Transoceanic
09:42PM 33.8971 -176.0367 256° West 460 529 40,000  Level FlightAware Transoceanic
09:43PM 33.8662 -176.1849 256° West 460 529 40,000  Level FlightAware Transoceanic
09:43PM 33.8833 -176.1500 256° West 459 528 40,000  Level Oakland Oceanic (ODAPS)
09:44PM 33.8350 -176.3330 256° West 460 529 40,000  Level FlightAware Transoceanic
09:45PM 33.8037 -176.4810 256° West 460 529 40,000  Level FlightAware Transoceanic
09:46PM 33.7722 -176.6289 256° West 460 529 40,000  Level FlightAware Transoceanic
09:47PM 33.7406 -176.7767 256° West 460 529 40,000  Level FlightAware Transoceanic
09:48PM 33.7087 -176.9244 255° West 460 529 40,000  Level FlightAware Transoceanic
09:49PM 33.6901 -177.0454 255° West 459 528 40,000  Level FlightAware Transoceanic
09:50PM 33.6573 -177.1942 255° West 459 528 40,000  Level FlightAware Transoceanic
09:51PM 33.6243 -177.3429 255° West 459 528 40,000  Level FlightAware Transoceanic
09:52PM 33.5911 -177.4915 255° West 459 528 40,000  Level FlightAware Transoceanic
09:53PM 33.5577 -177.6400 255° West 459 528 40,000  Level FlightAware Transoceanic
09:54PM 33.5242 -177.7884 255° West 459 528 40,000  Level FlightAware Transoceanic
09:55PM 33.4904 -177.9367 255° West 459 528 40,000  Level FlightAware Transoceanic
09:56PM 33.4565 -178.0848 255° West 459 528 40,000  Level FlightAware Transoceanic
09:57PM 33.4225 -178.2328 255° West 459 528 40,000  Level FlightAware Transoceanic
09:57PM 33.4333 -178.1833 255° West 456 525 40,000  Level Oakland Oceanic (ODAPS)
09:58PM 33.3882 -178.3808 254° West 459 528 40,000  Level FlightAware Transoceanic
09:59PM 33.3538 -178.5285 254° West 459 528 40,000  Level FlightAware Transoceanic
10:00PM 33.3192 -178.6762 254° West 459 528 40,000  Level FlightAware Transoceanic
10:01PM 33.2844 -178.8238 254° West 459 528 40,000  Level FlightAware Transoceanic
10:02PM 33.2495 -178.9712 254° West 459 528 40,000  Level FlightAware Transoceanic
10:03PM 33.2366 -179.0240 254° West 456 525 40,000  Level FlightAware Transoceanic
10:04PM 33.2033 -179.1638 254° West 456 525 40,000  Level FlightAware Transoceanic
10:05PM 33.1698 -179.3034 254° West 456 525 40,000  Level FlightAware Transoceanic
10:06PM 33.1361 -179.4429 254° West 456 525 40,000  Level FlightAware Transoceanic
10:07PM 33.1023 -179.5824 254° West 456 525 40,000  Level FlightAware Transoceanic
10:08PM 33.0684 -179.7217 254° West 456 525 40,000  Level FlightAware Transoceanic
10:09PM 33.0343 -179.8609 254° West 456 525 40,000  Level FlightAware Transoceanic
10:09PM 33.0000 180.0000 273° West 458 527 40,000  Level Oakland Oceanic (ODAPS)
10:10PM 33.0000 -180.0000 273° West 456 525 40,000  Level FlightAware Transoceanic
10:11PM 33.0060 179.8464 273° West 456 525 40,000  Level FlightAware Transoceanic
10:11PM 33.0167 179.7833 273° West 458 527 40,000  Level Oakland Oceanic (ODAPS)
10:12PM 33.0119 179.6927 273° West 456 525 40,000  Level FlightAware Transoceanic
10:13PM 33.0176 179.5391 272° West 456 525 40,000  Level FlightAware Transoceanic
10:14PM 33.0230 179.3854 272° West 456 525 40,000  Level FlightAware Transoceanic
10:15PM 33.0283 179.2317 272° West 456 525 40,000  Level FlightAware Transoceanic
10:16PM 33.0334 179.0780 272° West 458 527 40,000  Level FlightAware Transoceanic
10:17PM 33.0476 178.8670 272° West 458 527 40,000  Level FlightAware Transoceanic
10:18PM 33.0521 178.7142 272° West 458 527 40,000  Level FlightAware Transoceanic
10:19PM 33.0564 178.5614 272° West 458 527 40,000  Level FlightAware Transoceanic
10:20PM 33.0605 178.4086 272° West 458 527 40,000  Level FlightAware Transoceanic
10:21PM 33.0644 178.2557 272° West 458 527 40,000  Level FlightAware Transoceanic
10:22PM 33.0682 178.1029 272° West 458 527 40,000  Level FlightAware Transoceanic
10:23PM 33.0718 177.9500 272° West 458 527 40,000  Level FlightAware Transoceanic
10:24PM 33.0751 177.7972 271° West 458 527 40,000  Level FlightAware Transoceanic
10:25PM 33.0783 177.6443 271° West 458 527 40,000  Level FlightAware Transoceanic
10:25PM 33.0667 177.7000 272° West 455 524 40,000  Level Oakland Oceanic (ODAPS)
10:26PM 33.0813 177.4914 271° West 458 527 40,000  Level FlightAware Transoceanic
10:27PM 33.0842 177.3385 271° West 458 527 40,000  Level FlightAware Transoceanic
10:28PM 33.0868 177.1856 271° West 458 527 40,000  Level FlightAware Transoceanic
10:29PM 33.0893 177.0327 271° West 458 527 40,000  Level FlightAware Transoceanic
10:30PM 33.0915 176.8797 271° West 458 527 40,000  Level FlightAware Transoceanic
10:31PM 33.0834 176.7941 271° West 455 524 40,000  Level FlightAware Transoceanic
10:32PM 33.0856 176.6430 271° West 455 524 40,000  Level FlightAware Transoceanic
10:33PM 33.0875 176.4920 271° West 455 524 40,000  Level FlightAware Transoceanic
10:34PM 33.0893 176.3410 271° West 455 524 40,000  Level FlightAware Transoceanic
10:35PM 33.0909 176.1899 271° West 455 524 40,000  Level FlightAware Transoceanic
10:36PM 33.0923 176.0389 271° West 455 524 40,000  Level FlightAware Transoceanic
10:37PM 33.0936 175.8878 271° West 455 524 40,000  Level FlightAware Transoceanic
10:38PM 33.0947 175.7368 270° West 455 524 40,000  Level FlightAware Transoceanic
10:38PM 33.1000 175.6167 270° West 457 526 40,000  Level Oakland Oceanic (ODAPS)
10:39PM 33.0955 175.5857 270° West 455 524 40,000  Level FlightAware Transoceanic
10:40PM 33.0962 175.4347 270° West 455 524 40,000  Level FlightAware Transoceanic
10:41PM 33.0967 175.2836 270° West 455 524 40,000  Level FlightAware Transoceanic
10:42PM 33.0971 175.1326 270° West 455 524 40,000  Level FlightAware Transoceanic
10:43PM 33.0972 174.9815 270° West 455 524 40,000  Level FlightAware Transoceanic
10:44PM 33.0972 174.8304 270° West 455 524 40,000  Level FlightAware Transoceanic
10:44PM 33.1000 174.7833 270° West 453 521 40,000  Level Oakland Oceanic (ODAPS)
10:45PM 33.1009 174.7052 270° West 457 526 40,000  Level FlightAware Transoceanic
10:46PM 33.1004 174.5533 270° West 457 526 40,000  Level FlightAware Transoceanic
10:47PM 33.0997 174.4014 270° West 457 526 40,000  Level FlightAware Transoceanic
10:48PM 33.0989 174.2495 270° West 457 526 40,000  Level FlightAware Transoceanic
10:49PM 33.0978 174.0976 269° West 457 526 40,000  Level FlightAware Transoceanic
10:50PM 33.0966 173.9457 269° West 457 526 40,000  Level FlightAware Transoceanic
10:51PM 33.0937 173.7362 269° West 453 521 40,000  Level FlightAware Transoceanic
10:52PM 33.0921 173.5866 269° West 453 521 40,000  Level FlightAware Transoceanic
10:52PM 33.0833 173.5500 269° West 454 522 40,000  Level Oakland Oceanic (ODAPS)
10:53PM 33.0903 173.4371 269° West 453 521 40,000  Level FlightAware Transoceanic
10:54PM 33.0884 173.2875 269° West 453 521 40,000  Level FlightAware Transoceanic
10:55PM 33.0862 173.1380 269° West 453 521 40,000  Level FlightAware Transoceanic
10:56PM 33.0839 172.9884 269° West 453 521 40,000  Level FlightAware Transoceanic
10:57PM 33.0814 172.8389 269° West 453 521 40,000  Level FlightAware Transoceanic
10:58PM 33.0787 172.6893 269° West 453 521 40,000  Level FlightAware Transoceanic
10:59PM 33.0713 172.6233 269° West 454 522 40,000  Level FlightAware Transoceanic
11:00PM 33.0686 172.4689 269° West 454 522 40,000  Level FlightAware Transoceanic
11:01PM 33.0658 172.3145 269° West 454 522 40,000  Level FlightAware Transoceanic
11:02PM 33.0627 172.1601 269° West 454 522 40,000  Level FlightAware Transoceanic
11:03PM 33.0595 172.0057 269° West 454 522 40,000  Level FlightAware Transoceanic
11:04PM 33.0560 171.8513 268° West 454 522 40,000  Level FlightAware Transoceanic
11:05PM 33.0524 171.6970 268° West 454 522 40,000  Level FlightAware Transoceanic
11:06PM 33.0486 171.5426 268° West 454 522 40,000  Level FlightAware Transoceanic
11:06PM 33.0500 171.4667 268° West 457 526 40,000  Level Oakland Oceanic (ODAPS)
11:07PM 33.0446 171.3883 268° West 454 522 40,000  Level FlightAware Transoceanic
11:08PM 33.0404 171.2340 268° West 454 522 40,000  Level FlightAware Transoceanic
11:09PM 33.0360 171.0797 268° West 454 522 40,000  Level FlightAware Transoceanic
11:10PM 33.0314 170.9254 268° West 454 522 40,000  Level FlightAware Transoceanic
11:11PM 33.0267 170.7711 268° West 454 522 40,000  Level FlightAware Transoceanic
11:12PM 33.0217 170.6169 268° West 454 522 40,000  Level FlightAware Transoceanic
11:13PM 33.0168 170.4398 268° West 457 526 40,000  Level FlightAware Transoceanic
11:14PM 33.0114 170.2932 267° West 457 526 40,000  Level FlightAware Transoceanic
11:15PM 33.0058 170.1466 267° West 457 526 40,000  Level FlightAware Transoceanic
11:16PM 33.0000 170.0000 280° West 457 526 40,000  Level FlightAware Transoceanic
11:16PM 33.0000 170.0000 280° West 459 528 40,000  Level Oakland Oceanic (ODAPS)
11:17PM 33.0214 169.8481 280° West 457 526 40,000  Level FlightAware Transoceanic
11:18PM 33.0426 169.6962 279° West 457 526 40,000  Level FlightAware Transoceanic
11:19PM 33.0637 169.5441 279° West 457 526 40,000  Level FlightAware Transoceanic
11:20PM 33.0846 169.3920 279° West 457 526 40,000  Level FlightAware Transoceanic
11:20PM 33.0833 169.4000 279° West 460 529 40,000  Level Oakland Oceanic (ODAPS)
11:21PM 33.1052 169.2398 279° West 457 526 40,000  Level FlightAware Transoceanic
11:22PM 33.1239 169.1014 279° West 459 528 40,000  Level FlightAware Transoceanic
11:23PM 33.1439 168.9514 279° West 459 528 40,000  Level FlightAware Transoceanic
11:24PM 33.1637 168.8013 279° West 459 528 40,000  Level FlightAware Transoceanic
11:25PM 33.1834 168.6512 279° West 459 528 40,000  Level FlightAware Transoceanic
11:26PM 33.2029 168.4999 279° West 460 529 40,000  Level FlightAware Transoceanic
11:27PM 33.2222 168.3496 279° West 460 529 40,000  Level FlightAware Transoceanic
11:28PM 33.2413 168.1993 279° West 460 529 40,000  Level FlightAware Transoceanic
11:29PM 33.2602 168.0489 279° West 460 529 40,000  Level FlightAware Transoceanic
11:30PM 33.2790 167.8985 278° West 460 529 40,000  Level FlightAware Transoceanic
11:31PM 33.2976 167.7480 278° West 460 529 40,000  Level FlightAware Transoceanic
11:32PM 33.3159 167.5974 278° West 460 529 40,000  Level FlightAware Transoceanic
11:33PM 33.3341 167.4467 278° West 460 529 40,000  Level FlightAware Transoceanic
11:34PM 33.3522 167.2960 278° West 460 529 40,000  Level FlightAware Transoceanic
11:34PM 33.3500 167.3333 278° West 458 527 40,000  Level Oakland Oceanic (ODAPS)
11:35PM 33.3700 167.1452 278° West 460 529 40,000  Level FlightAware Transoceanic
11:36PM 33.3877 166.9944 278° West 460 529 40,000  Level FlightAware Transoceanic
11:37PM 33.4052 166.8435 278° West 460 529 40,000  Level FlightAware Transoceanic
11:38PM 33.4225 166.6926 278° West 460 529 40,000  Level FlightAware Transoceanic
11:39PM 33.4396 166.5416 278° West 460 529 40,000  Level FlightAware Transoceanic
11:40PM 33.4548 166.4232 278° West 458 527 40,000  Level FlightAware Transoceanic
11:41PM 33.4717 166.2713 278° West 458 527 40,000  Level FlightAware Transoceanic
11:42PM 33.4883 166.1194 277° West 458 527 40,000  Level FlightAware Transoceanic
11:43PM 33.5048 165.9673 277° West 458 527 40,000  Level FlightAware Transoceanic
11:44PM 33.5210 165.8153 277° West 458 527 40,000  Level FlightAware Transoceanic
11:45PM 33.5371 165.6631 277° West 458 527 40,000  Level FlightAware Transoceanic
11:46PM 33.5530 165.5110 277° West 458 527 40,000  Level FlightAware Transoceanic
11:47PM 33.5687 165.3587 277° West 458 527 40,000  Level FlightAware Transoceanic
11:48PM 33.5842 165.2064 277° West 458 527 40,000  Level FlightAware Transoceanic
11:48PM 33.5833 165.2333 277° West 462 532 40,000  Level Oakland Oceanic (ODAPS)
11:49PM 33.5996 165.0541 277° West 458 527 40,000  Level FlightAware Transoceanic
11:50PM 33.6147 164.9017 277° West 458 527 40,000  Level FlightAware Transoceanic
11:51PM 33.6297 164.7492 277° West 458 527 40,000  Level FlightAware Transoceanic
11:52PM 33.6445 164.5967 277° West 458 527 40,000  Level FlightAware Transoceanic
11:53PM 33.6591 164.4441 277° West 458 527 40,000  Level FlightAware Transoceanic
11:54PM 33.6729 164.3137 276° West 462 532 40,000  Level FlightAware Transoceanic
11:55PM 33.6871 164.1602 276° West 462 532 40,000  Level FlightAware Transoceanic
11:56PM 33.7012 164.0067 276° West 462 532 40,000  Level FlightAware Transoceanic
11:57PM 33.7151 163.8532 276° West 462 532 40,000  Level FlightAware Transoceanic
11:58PM 33.7288 163.6996 276° West 462 532 40,000  Level FlightAware Transoceanic
11:59PM 33.7423 163.5459 276° West 462 532 40,000  Level FlightAware Transoceanic
12:00AM 33.7556 163.3922 276° West 462 532 40,000  Level FlightAware Transoceanic
12:01AM 33.7687 163.2385 276° West 462 532 40,000  Level FlightAware Transoceanic
12:02AM 33.7817 163.0847 276° West 462 532 40,000  Level FlightAware Transoceanic
12:03AM 33.7944 162.9309 276° West 462 532 40,000  Level FlightAware Transoceanic
12:04AM 33.8069 162.7770 276° West 462 532 40,000  Level FlightAware Transoceanic
12:05AM 33.8193 162.6230 275° West 462 532 40,000  Level FlightAware Transoceanic
12:06AM 33.8315 162.4691 275° West 462 532 40,000  Level FlightAware Transoceanic
12:07AM 33.8434 162.3150 275° West 462 532 40,000  Level FlightAware Transoceanic
12:08AM 33.8552 162.1610 275° West 462 532 40,000  Level FlightAware Transoceanic
12:09AM 33.8668 162.0069 275° West 462 532 40,000  Level FlightAware Transoceanic
12:10AM 33.8782 161.8527 275° West 462 532 40,000  Level FlightAware Transoceanic
12:11AM 33.8894 161.6985 275° West 462 532 40,000  Level FlightAware Transoceanic
12:12AM 33.9004 161.5443 275° West 462 532 40,000  Level FlightAware Transoceanic
12:13AM 33.9113 161.3901 275° West 462 532 40,000  Level FlightAware Transoceanic
12:14AM 33.9219 161.2357 275° West 462 532 40,000  Level FlightAware Transoceanic
12:15AM 33.9323 161.0814 275° West 462 532 40,000  Level FlightAware Transoceanic
12:16AM 33.9426 160.9270 275° West 462 532 40,000  Level FlightAware Transoceanic
12:17AM 33.9526 160.7726 274° West 462 532 40,000  Level FlightAware Transoceanic
12:18AM 33.9625 160.6182 274° West 462 532 40,000  Level FlightAware Transoceanic
12:19AM 33.9722 160.4637 274° West 462 532 40,000  Level FlightAware Transoceanic
12:20AM 33.9816 160.3091 274° West 462 532 40,000  Level FlightAware Transoceanic
12:21AM 33.9909 160.1546 274° West 462 532 40,000  Level FlightAware Transoceanic
12:22AM 34.0000 160.0000 280° West 462 532 40,000  Level FlightAware Transoceanic
12:23AM 34.0209 159.8527 280° West 462 532 40,000  Level FlightAware Transoceanic
12:24AM 34.0415 159.7054 280° West 462 532 40,000  Level FlightAware Transoceanic
12:25AM 34.0621 159.5580 279° West 462 532 40,000  Level FlightAware Transoceanic
12:26AM 34.0824 159.4105 279° West 462 532 40,000  Level FlightAware Transoceanic
12:27AM 34.1026 159.2629 279° West 462 532 40,000  Level FlightAware Transoceanic
12:28AM 34.1225 159.1153 279° West 462 532 40,000  Level FlightAware Transoceanic
12:29AM 34.1423 158.9676 279° West 462 532 40,000  Level FlightAware Transoceanic
12:30AM 34.1620 158.8198 279° West 462 532 40,000  Level FlightAware Transoceanic
12:31AM 34.1814 158.6720 279° West 462 532 40,000  Level FlightAware Transoceanic
12:32AM 34.2007 158.5240 279° West 462 532 40,000  Level FlightAware Transoceanic
12:33AM 34.2198 158.3761 279° West 462 532 40,000  Level FlightAware Transoceanic
12:34AM 34.2387 158.2280 279° West 462 532 40,000  Level FlightAware Transoceanic
12:35AM 34.2574 158.0799 279° West 462 532 40,000  Level FlightAware Transoceanic
12:36AM 34.2760 157.9317 279° West 462 532 40,000  Level FlightAware Transoceanic
12:37AM 34.2944 157.7835 278° West 462 532 40,000  Level FlightAware Transoceanic
12:38AM 34.3126 157.6352 278° West 462 532 40,000  Level FlightAware Transoceanic
12:39AM 34.3306 157.4868 278° West 462 532 40,000  Level FlightAware Transoceanic
12:40AM 34.3484 157.3384 278° West 462 532 40,000  Level FlightAware Transoceanic
12:41AM 34.3661 157.1899 278° West 462 532 40,000  Level FlightAware Transoceanic
12:42AM 34.3836 157.0414 278° West 462 532 40,000  Level FlightAware Transoceanic
12:43AM 34.4009 156.8927 278° West 462 532 40,000  Level FlightAware Transoceanic
12:44AM 34.4180 156.7441 278° West 462 532 40,000  Level FlightAware Transoceanic
12:45AM 34.4350 156.5953 278° West 462 532 40,000  Level FlightAware Transoceanic
12:46AM 34.4518 156.4465 278° West 462 532 40,000  Level FlightAware Transoceanic
12:47AM 34.4683 156.2977 278° West 462 532 40,000  Level FlightAware Transoceanic
12:48AM 34.4847 156.1488 278° West 462 532 40,000  Level FlightAware Transoceanic
12:49AM 34.5010 155.9998 277° West 462 532 40,000  Level FlightAware Transoceanic
12:50AM 34.5170 155.8508 277° West 462 532 40,000  Level FlightAware Transoceanic
12:51AM 34.5329 155.7017 277° West 462 532 40,000  Level FlightAware Transoceanic
12:52AM 34.5486 155.5525 277° West 462 532 40,000  Level FlightAware Transoceanic
12:53AM 34.5641 155.4033 277° West 462 532 40,000  Level FlightAware Transoceanic
12:54AM 34.5794 155.2540 277° West 462 532 40,000  Level FlightAware Transoceanic
12:55AM 34.5945 155.1047 277° West 462 532 40,000  Level FlightAware Transoceanic
12:56AM 34.6095 154.9554 277° West 462 532 40,000  Level FlightAware Transoceanic
12:57AM 34.6243 154.8060 277° West 462 532 40,000  Level FlightAware Transoceanic
12:58AM 34.6389 154.6565 277° West 462 532 40,000  Level FlightAware Transoceanic
12:59AM 34.6533 154.5070 277° West 462 532 40,000  Level FlightAware Transoceanic
01:00AM 34.6675 154.3574 277° West 462 532 40,000  Level FlightAware Transoceanic
01:01AM 34.6815 154.2077 276° West 462 532 40,000  Level FlightAware Transoceanic
01:02AM 34.6954 154.0581 276° West 462 532 40,000  Level FlightAware Transoceanic
01:03AM 34.7091 153.9083 276° West 462 532 40,000  Level FlightAware Transoceanic
01:04AM 34.7226 153.7586 276° West 462 532 40,000  Level FlightAware Transoceanic
01:05AM 34.7359 153.6087 276° West 462 532 40,000  Level FlightAware Transoceanic
01:06AM 34.7490 153.4589 276° West 462 532 40,000  Level FlightAware Transoceanic
01:07AM 34.7620 153.3089 276° West 462 532 40,000  Level FlightAware Transoceanic
01:08AM 34.7747 153.1590 276° West 462 532 40,000  Level FlightAware Transoceanic
01:09AM 34.7873 153.0090 276° West 462 532 40,000  Level FlightAware Transoceanic
01:10AM 34.7997 152.8589 276° West 462 532 40,000  Level FlightAware Transoceanic
01:11AM 34.8119 152.7088 276° West 462 532 40,000  Level FlightAware Transoceanic
01:12AM 34.8239 152.5587 276° West 462 532 40,000  Level FlightAware Transoceanic
01:13AM 34.8358 152.4085 275° West 462 532 40,000  Level FlightAware Transoceanic
01:14AM 34.8474 152.2582 275° West 462 532 40,000  Level FlightAware Transoceanic
01:15AM 34.8589 152.1080 275° West 462 532 40,000  Level FlightAware Transoceanic
01:16AM 34.8702 151.9576 275° West 462 532 40,000  Level FlightAware Transoceanic
01:17AM 34.8813 151.8073 275° West 462 532 40,000  Level FlightAware Transoceanic
01:18AM 34.8922 151.6569 275° West 462 532 40,000  Level FlightAware Transoceanic
01:19AM 34.9029 151.5064 275° West 462 532 40,000  Level FlightAware Transoceanic
01:20AM 34.9135 151.3560 275° West 462 532 40,000  Level FlightAware Transoceanic
01:21AM 34.9238 151.2054 275° West 462 532 40,000  Level FlightAware Transoceanic
01:22AM 34.9340 151.0549 275° West 462 532 40,000  Level FlightAware Transoceanic
01:23AM 34.9440 150.9043 275° West 462 532 40,000  Level FlightAware Transoceanic
01:24AM 34.9538 150.7537 274° West 462 532 40,000  Level FlightAware Transoceanic
01:25AM 34.9634 150.6030 274° West 462 532 40,000  Level FlightAware Transoceanic
01:26AM 34.9728 150.4523 274° West 462 532 40,000  Level FlightAware Transoceanic
01:27AM 34.9821 150.3016 274° West 462 532 40,000  Level FlightAware Transoceanic
01:28AM 34.9911 150.1508 274° West 462 532 40,000 -120 Level FlightAware Transoceanic
01:29AM 35.0002 149.9962 274° West  Level FlightAware Approximate
01:30AM 35.0007 149.9924 277° West  Level FlightAware Approximate
01:31AM 35.0153 149.8388 277° West  Level FlightAware Approximate
01:32AM 35.0297 149.6852 277° West  Level FlightAware Approximate
01:33AM 35.0439 149.5315 276° West  Level FlightAware Approximate
01:34AM 35.0579 149.3778 276° West  Level FlightAware Approximate
01:35AM 35.0717 149.2240 276° West  Level FlightAware Approximate
01:36AM 35.0854 149.0701 276° West  Level FlightAware Approximate
01:37AM 35.0988 148.9162 276° West  Level FlightAware Approximate
01:38AM 35.1120 148.7623 276° West  Level FlightAware Approximate
01:39AM 35.1250 148.6083 276° West  Level FlightAware Approximate
01:40AM 35.1379 148.4542 276° West  Level FlightAware Approximate
01:41AM 35.1505 148.3001 276° West  Level FlightAware Approximate
01:42AM 35.1630 148.1460 276° West  Level FlightAware Approximate
01:43AM 35.1752 147.9918 276° West  Level FlightAware Approximate
01:44AM 35.1873 147.8376 276° West  Level FlightAware Approximate
01:45AM 35.1991 147.6833 275° West  Level FlightAware Approximate
01:46AM 35.2108 147.5290 275° West  Level FlightAware Approximate
01:47AM 35.2223 147.3746 275° West  Level FlightAware Approximate
01:48AM 35.2335 147.2202 275° West  Level FlightAware Approximate
01:49AM 35.2446 147.0657 275° West  Level FlightAware Approximate
01:50AM 35.2555 146.9112 275° West  Level FlightAware Approximate
01:51AM 35.2662 146.7567 275° West  Level FlightAware Approximate
01:52AM 35.2767 146.6021 275° West  Level FlightAware Approximate
01:53AM 35.2870 146.4475 275° West  Level FlightAware Approximate
01:54AM 35.2971 146.2928 275° West  Level FlightAware Approximate
01:55AM 35.3070 146.1382 275° West  Level FlightAware Approximate
01:56AM 35.3167 145.9834 274° West  Level FlightAware Approximate
01:57AM 35.3129 145.8283 268° West  Level FlightAware Approximate
01:58AM 35.3089 145.6732 268° West  Level FlightAware Approximate
01:59AM 35.3047 145.5181 268° West  Level FlightAware Approximate
02:00AM 35.3004 145.3630 268° West  Level FlightAware Approximate
02:01AM 35.2947 145.2080 267° West  Level FlightAware Approximate
02:02AM 35.2888 145.0530 267° West  Level FlightAware Approximate
02:03AM 35.2826 144.8981 267° West  Level FlightAware Approximate
02:04AM 35.2763 144.7431 267° West  Level FlightAware Approximate
02:05AM 35.2697 144.5882 267° West  Level FlightAware Approximate
02:06AM 35.2630 144.4333 267° West  Level FlightAware Approximate
02:07AM 35.2560 144.2785 267° West  Level FlightAware Approximate
02:08AM 35.2489 144.1237 267° West  Level FlightAware Approximate
02:09AM 35.2416 143.9689 267° West  Level FlightAware Approximate
02:10AM 35.2340 143.8141 267° West  Level FlightAware Approximate
02:11AM 35.2769 143.6695 292° West  Level FlightAware Approximate
02:12AM 35.3237 143.5254 289° West  Level FlightAware Approximate
02:13AM 35.3658 143.3790 289° West  Level FlightAware Approximate
02:14AM 35.4077 143.2323 289° West  Level FlightAware Approximate
02:15AM 35.4494 143.0856 289° West  Level FlightAware Approximate
02:16AM 35.4973 142.9417 292° West  Level FlightAware Approximate
02:17AM 35.5452 142.7977 292° West  Level FlightAware Approximate
02:18AM 35.5932 142.6536 292° West  Level FlightAware Approximate
02:18AM 35.5220 142.8880 288° West 385 443 34,600  Level FlightAware
02:18AM 35.5260 142.8090 274° West 370 426 32,300 -3,000 Descending FlightAware
02:19AM 35.6340 142.5062 288° West  Level FlightAware Approximate
02:19AM 35.5310 142.7380 275° West 356 410 30,900  Level FlightAware
02:20AM 35.5350 142.6760 275° West 338 389 29,200 -3,180 Descending FlightAware
02:20AM 35.5380 142.6090 273° West 330 380 27,300 -2,460 Descending FlightAware
02:21AM 35.5430 142.5190 274° West 328 377 25,700 -1,800 Descending FlightAware
02:21AM 35.5460 142.4650 274° West 330 380 25,000 -1,440 Descending FlightAware
02:22AM 35.5510 142.3850 274° West 322 371 24,000 -1,440 Descending FlightAware
02:23AM 35.5540 142.3290 274° West 283 326 23,300 -1,320 Descending FlightAware
02:23AM 35.5570 142.2740 274° West 316 364 22,600 -1,380 Descending FlightAware
02:24AM 35.5620 142.1950 274° West 311 358 21,600 -1,440 Descending FlightAware
02:25AM 35.5650 142.1310 273° West 308 354 20,800 -1,380 Descending FlightAware
02:25AM 35.5690 142.0630 274° West 308 354 19,900 -1,320 Descending FlightAware
02:26AM 35.5710 142.0160 273° West 308 354 19,300 -1,440 Descending FlightAware
02:26AM 35.5740 141.9510 273° West 302 348 18,400 -1,560 Descending FlightAware
02:27AM 35.5780 141.8810 274° West 303 349 17,400 -1,380 Descending FlightAware
02:28AM 35.5830 141.7930 274° West 297 342 16,300 -960 Descending FlightAware
02:28AM 35.5810 141.7370 268° West 297 342 16,000 -240 Descending FlightAware
02:29AM 35.5770 141.6590 266° West 290 334 16,000  Level FlightAware
02:30AM 35.5730 141.5900 266° West 288 331 16,000  Level FlightAware
02:30AM 35.5700 141.5310 266° West 287 330 16,000  Level FlightAware
02:31AM 35.5740 141.4810 276° West 290 334 16,000  Level FlightAware
02:31AM 35.5820 141.4600 295° West 296 341 16,000  Level FlightAware
02:32AM 35.6050 141.4090 299° West 298 343 16,000  Level FlightAware
02:32AM 35.6300 141.3540 299° West 298 343 16,000 -360 Level FlightAware
02:33AM 35.6520 141.3050 299° West 295 339 15,600 -960 Descending FlightAware
02:34AM 35.6760 141.2520 299° West 289 333 14,900 -1,320 Descending FlightAware
02:34AM 35.6980 141.2010 298° West 292 336 14,100 -1,560 Descending FlightAware
02:35AM 35.7220 141.1490 300° West 305 351 13,100 -1,320 Descending FlightAware
02:35AM 35.7450 141.0970 299° West 291 335 12,600 -1,140 Descending FlightAware
02:36AM 35.7680 141.0460 299° West 292 336 11,800 -1,680 Descending FlightAware
02:36AM 35.7920 140.9940 300° West 295 339 10,700 -1,800 Descending FlightAware
02:37AM 35.8110 140.9490 298° West 288 331 9,900 -1,680 Descending FlightAware
02:37AM 35.8240 140.9200 299° West 291 335 9,300 -1,680 Descending FlightAware
02:37AM 35.8250 140.9160 287° West 291 335 9,200 -1,080 Descending FlightAware
02:38AM 35.8210 140.8670 264° West 287 330 8,700 -900 Descending FlightAware
02:38AM 35.8140 140.8540 236° Southwest 279 321 8,600  Descending FlightAware
02:38AM 35.8080 140.8490 214° Southwest 269 310 8,700  Climbing FlightAware
02:38AM 35.7910 140.8390 206° Southwest 255 293 8,600 -180 Descending FlightAware
02:39AM 35.7670 140.8290 199° South 257 296 8,600 -180 Level FlightAware
02:39AM 35.7450 140.8210 196° South 251 289 8,500 -600 Descending FlightAware
02:39AM 35.7210 140.8250 172° South 249 287 8,200 -1,080 Descending FlightAware
02:40AM 35.6970 140.8320 167° South 248 285 7,800 -1,080 Descending FlightAware
02:40AM 35.6750 140.8390 166° South 247 284 7,500 -780 Descending FlightAware
02:40AM 35.6540 140.8460 165° South 237 273 7,300 -600 Descending FlightAware
02:41AM 35.6310 140.8520 168° South 230 265 7,100 -900 Descending FlightAware
02:41AM 35.6020 140.8600 167° South 231 266 6,600 -960 Descending FlightAware
02:42AM 35.5780 140.8660 169° South 230 265 6,300 -1,080 Descending FlightAware
02:42AM 35.5570 140.8700 171° South 229 264 5,900 -1,080 Descending FlightAware
02:42AM 35.5380 140.8610 201° Southwest 236 272 5,600 -900 Descending FlightAware
02:42AM 35.5320 140.8570 208° Southwest 234 269 5,500 -1,020 Descending FlightAware
02:43AM 35.5060 140.8330 217° Southwest 242 278 5,000 -1,020 Descending FlightAware
02:43AM 35.4870 140.8150 218° Southwest 241 277 4,700 -780 Descending FlightAware
02:44AM 35.4620 140.7920 217° Southwest 231 266 4,400 -540 Descending FlightAware
02:44AM 35.4370 140.7670 219° Southwest 213 245 4,200 -420 Descending FlightAware
02:45AM 35.4120 140.7430 218° Southwest 196 226 4,000 -540 Descending FlightAware
02:45AM 35.3920 140.7210 222° Southwest 197 227 3,700 -600 Descending FlightAware
02:45AM 35.3890 140.7080 254° West 198 228 3,600 -180 Descending FlightAware
02:46AM 35.3920 140.6820 278° West 203 234 3,600  Level FlightAware
02:46AM 35.3950 140.6770 306° West 199 229 3,600  Level FlightAware
02:46AM 35.4080 140.6560 307° West 196 226 3,600  Level FlightAware
02:47AM 35.4230 140.6410 321° Northwest 195 224 3,600  Level FlightAware
02:47AM 35.4360 140.6280 321° Northwest 189 217 3,600  Level FlightAware
02:47AM 35.4500 140.6150 323° Northwest 187 215 3,600  Level FlightAware
02:48AM 35.4650 140.6000 321° Northwest 175 201 3,600  Level FlightAware
02:48AM 35.4720 140.5930 321° Northwest 176 203 3,600  Level FlightAware
02:48AM 35.4860 140.5790 321° Northwest 174 200 3,600  Level FlightAware
02:48AM 35.4990 140.5680 325° Northwest 175 201 3,600  Level FlightAware
02:49AM 35.5160 140.5550 328° Northwest 175 201 3,600  Level FlightAware
02:49AM 35.5300 140.5450 330° Northwest 175 201 3,600 120 Level FlightAware
02:50AM 35.5440 140.5350 330° Northwest 177 204 3,700  Climbing FlightAware
02:50AM 35.5580 140.5240 327° Northwest 177 204 3,600 -180 Descending FlightAware
02:50AM 35.5720 140.5140 330° Northwest 178 205 3,600 -420 Level FlightAware
02:51AM 35.5910 140.5000 329° Northwest 177 204 3,300 -840 Descending FlightAware
02:51AM 35.6050 140.4900 330° Northwest 172 198 3,000 -900 Descending FlightAware
02:51AM 35.6180 140.4810 331° Northwest 170 196 2,700 -900 Descending FlightAware
02:52AM 35.6320 140.4710 330° Northwest 167 192 2,400 -900 Descending FlightAware
02:52AM 35.6460 140.4610 330° Northwest 161 185 2,100 -960 Descending FlightAware
02:52AM 35.6600 140.4510 330° Northwest 156 180 1,700 -960 Descending FlightAware
02:53AM 35.6730 140.4420 331° Northwest 143 165 1,400 -780 Descending FlightAware
02:53AM 35.6820 140.4350 328° Northwest 127 146 1,200 -660 Descending FlightAware
02:53AM 35.6930 140.4270 329° Northwest 126 145 1,000 -720 Descending FlightAware
02:54AM 35.7050 140.4180 329° Northwest 125 144 700 -720 Descending FlightAware
02:54AM 35.7140 140.4120 332° Northwest 123 142 500 -600 Descending FlightAware
02:54AM 35.7250 140.4040 329° Northwest 129 148 300 -600 Descending FlightAware
02:55AM 35.7340 140.3980 332° Northwest 130 150 -1,140 Descending FlightAware
02:55AM 35.7420 140.3920 329° Northwest 130 150  Level FlightAware
02:55AM 35.7540 140.3830 329° Northwest 130 150  Level FlightAware